Time;durP1;ratioP1;P1;durP2;ratioP2;P2;SDS_P1;SDS_P2;PMS_P1;PMS_P2;Temp;Humidity;BMP_temperature;BMP_pressure;BME280_temperature;BME280_humidity;BME280_pressure;Samples;Min_cycle;Max_cycle;Signal;HPM_P1;HPM_P2
2021/01/22 00:02:06;;;;;;;19.15;5.85;;;2.50;98.70;;;;;;5000388;28;20037;-88
2021/01/22 00:04:32;;;;;;;18.40;6.15;;;2.40;98.40;;;;;;5007086;28;20014;-87
2021/01/22 00:06:57;;;;;;;12.15;5.13;;;2.30;98.30;;;;;;4984104;28;20030;-88
2021/01/22 00:09:24;;;;;;;14.23;5.47;;;2.20;98.40;;;;;;5007088;28;20022;-88
2021/01/22 00:11:50;;;;;;;12.18;5.63;;;2.10;98.60;;;;;;5020589;28;20042;-87
2021/01/22 00:14:15;;;;;;;16.65;5.93;;;2.00;98.70;;;;;;5016968;28;20017;-88
2021/01/22 00:16:41;;;;;;;13.52;5.25;;;1.90;98.80;;;;;;5021479;28;20033;-87
2021/01/22 00:19:07;;;;;;;;;;;1.90;98.80;;;;;;5026411;28;20024;-88
2021/01/22 00:21:33;;;;;;;17.52;7.18;;;1.90;98.90;;;;;;5020972;28;19905;-88
2021/01/22 00:23:59;;;;;;;17.13;6.40;;;1.90;99.10;;;;;;5016084;28;20474;-85
2021/01/22 00:26:25;;;;;;;20.10;6.95;;;2.00;99.10;;;;;;5024311;28;20010;-88
2021/01/22 00:28:51;;;;;;;23.60;8.27;;;2.00;99.30;;;;;;5020297;28;20026;-87
2021/01/22 00:31:17;;;;;;;27.85;9.43;;;2.00;99.20;;;;;;5021483;28;20064;-87
2021/01/22 00:33:43;;;;;;;26.05;10.63;;;2.00;99.10;;;;;;5015897;28;20110;-85
2021/01/22 00:36:09;;;;;;;35.75;10.68;;;2.00;99.40;;;;;;5032996;28;20514;-88
2021/01/22 00:38:34;;;;;;;32.63;9.77;;;2.10;99.50;;;;;;5000727;28;20486;-87
2021/01/22 00:41:00;;;;;;;26.80;9.40;;;2.00;99.20;;;;;;5001064;28;20033;-88
2021/01/22 00:43:26;;;;;;;28.23;17.38;;;2.00;99.20;;;;;;5005539;28;20056;-88
2021/01/22 00:45:52;;;;;;;30.92;13.25;;;1.90;99.00;;;;;;4991709;28;20025;-87
2021/01/22 00:48:17;;;;;;;23.67;10.48;;;1.80;99.00;;;;;;5001198;28;20455;-88
2021/01/22 00:50:43;;;;;;;26.95;9.68;;;1.80;99.00;;;;;;5000139;28;20034;-88
2021/01/22 00:53:09;;;;;;;;;;;1.70;99.10;;;;;;4992153;28;20026;-87
2021/01/22 00:55:35;;;;;;;22.58;9.57;;;1.70;99.10;;;;;;5011808;28;19909;-88
2021/01/22 00:58:00;;;;;;;27.60;9.00;;;1.60;99.10;;;;;;4994154;28;20037;-86
2021/01/22 01:00:26;;;;;;;22.02;8.57;;;1.60;99.20;;;;;;4993043;28;20026;-87
2021/01/22 01:02:52;;;;;;;25.08;9.88;;;1.60;99.20;;;;;;5003800;28;20399;-88
2021/01/22 01:05:18;;;;;;;43.65;13.27;;;1.60;99.40;;;;;;4997711;28;20449;-88
2021/01/22 01:07:43;;;;;;;35.75;12.00;;;1.60;99.90;;;;;;5002431;28;20041;-87
2021/01/22 01:10:10;;;;;;;30.23;10.75;;;1.60;99.90;;;;;;5012807;28;20078;-87
2021/01/22 01:12:36;;;;;;;55.15;14.38;;;1.50;99.90;;;;;;4993983;28;20022;-85
2021/01/22 01:15:06;;;;;;;48.42;13.15;;;1.50;99.90;;;;;;4989409;28;20076;-88
2021/01/22 01:17:33;;;;;;;35.60;11.27;;;1.50;99.90;;;;;;5003230;28;20029;-87
2021/01/22 01:19:59;;;;;;;40.75;13.70;;;1.50;99.90;;;;;;4996450;28;20036;-87
2021/01/22 01:22:24;;;;;;;48.58;15.55;;;1.60;99.90;;;;;;4995793;28;20026;-86
2021/01/22 01:24:50;;;;;;;40.72;12.52;;;1.80;99.90;;;;;;5020794;28;20036;-87
2021/01/22 01:27:16;;;;;;;28.52;10.93;;;1.80;99.90;;;;;;5036022;28;20059;-85
2021/01/22 01:29:41;;;;;;;24.17;11.00;;;1.80;99.90;;;;;;5012446;28;20120;-87
2021/01/22 01:32:07;;;;;;;31.25;11.57;;;1.70;99.90;;;;;;5011489;28;20030;-87
2021/01/22 01:34:33;;;;;;;35.72;12.65;;;1.60;99.90;;;;;;5013601;28;20172;-87
2021/01/22 01:36:59;;;;;;;36.50;11.93;;;1.50;99.80;;;;;;4993977;28;20117;-86
2021/01/22 01:39:25;;;;;;;36.53;12.05;;;1.40;99.90;;;;;;4995349;28;20027;-86
2021/01/22 01:41:50;;;;;;;35.05;11.30;;;1.40;99.80;;;;;;4990327;28;20025;-87
2021/01/22 01:44:16;;;;;;;41.83;12.05;;;1.40;99.80;;;;;;5005305;28;20022;-86
2021/01/22 01:46:42;;;;;;;36.35;11.13;;;1.30;99.80;;;;;;5015674;28;20137;-86
2021/01/22 01:49:08;;;;;;;38.50;12.93;;;1.30;99.80;;;;;;4995491;28;20461;-84
2021/01/22 01:51:33;;;;;;;37.33;11.20;;;1.30;99.90;;;;;;4995672;28;20048;-86
2021/01/22 01:53:59;;;;;;;41.63;13.50;;;1.30;99.90;;;;;;5007361;28;20035;-88
2021/01/22 01:56:26;;;;;;;;;;;1.30;99.90;;;;;;4988655;28;20026;-87
2021/01/22 01:58:52;;;;;;;43.13;14.83;;;1.40;99.90;;;;;;5012882;28;19905;-87
2021/01/22 02:01:19;;;;;;;51.83;15.38;;;1.50;99.90;;;;;;5004285;28;20050;-88
2021/01/22 02:03:45;;;;;;;32.05;12.82;;;1.60;99.90;;;;;;4995013;28;20026;-87
2021/01/22 02:06:11;;;;;;;26.60;12.07;;;1.60;99.90;;;;;;5013596;28;20076;-87
2021/01/22 02:08:38;;;;;;;29.95;11.18;;;1.50;99.90;;;;;;5012029;28;20108;-88
2021/01/22 02:11:06;;;;;;;31.88;11.27;;;1.40;99.90;;;;;;5008790;28;20265;-87
2021/01/22 02:13:33;;;;;;;34.45;11.52;;;1.30;99.90;;;;;;5013266;28;20403;-87
2021/01/22 02:16:00;;;;;;;37.22;11.25;;;1.20;99.90;;;;;;5009671;28;20048;-88
2021/01/22 02:18:27;;;;;;;34.67;12.80;;;1.10;99.90;;;;;;4995551;28;20053;-88
2021/01/22 02:21:05;;;;;;;29.52;11.60;;;1.10;99.90;;;;;;5005427;28;20434;-87
2021/01/22 02:23:34;;;;;;;37.83;11.30;;;1.10;99.90;;;;;;5027002;28;20053;-87
2021/01/22 02:26:27;;;;;;;32.08;10.50;;;1.00;99.90;;;;;;5029149;28;20463;-87
2021/01/22 02:29:05;;;;;;;37.05;12.98;;;1.00;99.90;;;;;;5007827;28;20057;-87
2021/01/22 02:31:34;;;;;;;41.78;11.82;;;0.90;99.90;;;;;;4997376;28;20380;-86
2021/01/22 02:34:03;;;;;;;31.35;11.32;;;0.80;99.90;;;;;;5012995;28;20104;-87
2021/01/22 02:36:32;;;;;;;49.25;17.25;;;0.80;99.90;;;;;;5014120;28;20034;-86
2021/01/22 02:39:02;;;;;;;30.73;12.93;;;0.80;99.90;;;;;;5011024;28;20033;-88
2021/01/22 02:41:30;;;;;;;38.78;14.45;;;0.70;99.90;;;;;;5013498;28;20037;-87
2021/01/22 02:43:56;;;;;;;40.97;12.93;;;0.70;99.90;;;;;;5005559;28;20022;-87
2021/01/22 02:46:22;;;;;;;;;;;0.70;99.90;;;;;;5013783;28;20390;-87
2021/01/22 02:48:48;;;;;;;35.60;10.73;;;0.70;99.90;;;;;;4992311;28;19905;-87
2021/01/22 02:51:14;;;;;;;37.28;12.02;;;0.60;99.90;;;;;;4998629;28;20033;-87
2021/01/22 02:53:41;;;;;;;39.20;12.85;;;0.60;99.90;;;;;;4982314;28;20037;-87
2021/01/22 02:56:51;;;;;;;34.70;12.30;;;0.60;99.90;;;;;;4993849;28;20087;-87
2021/01/22 02:59:43;;;;;;;33.70;12.10;;;0.50;99.90;;;;;;4979995;28;20026;-86
2021/01/22 03:02:18;;;;;;;42.53;14.32;;;0.50;99.90;;;;;;5012740;28;20025;-85
2021/01/22 03:04:45;;;;;;;48.88;14.95;;;0.50;99.90;;;;;;5013273;28;20176;-85
2021/01/22 03:07:18;;;;;;;31.25;12.40;;;0.50;99.90;;;;;;5013811;28;20030;-87
2021/01/22 03:09:46;;;;;;;30.30;11.75;;;0.50;99.90;;;;;;4995730;28;20107;-84
2021/01/22 03:12:13;;;;;;;32.75;12.23;;;0.50;99.90;;;;;;4994651;28;20042;-87
2021/01/22 03:14:41;;;;;;;33.05;11.82;;;0.40;99.90;;;;;;4988243;28;20471;-87
2021/01/22 03:17:08;;;;;;;29.67;12.77;;;0.40;99.90;;;;;;4987638;28;20034;-84
2021/01/22 03:19:47;;;;;;;34.47;13.38;;;0.40;99.90;;;;;;4997505;28;20026;-86
2021/01/22 03:22:14;;;;;;;27.70;12.27;;;0.40;99.90;;;;;;4999026;28;20034;-88
2021/01/22 03:24:40;;;;;;;30.27;12.95;;;0.30;99.90;;;;;;4996040;28;20030;-84
2021/01/22 03:27:06;;;;;;;37.25;15.20;;;0.30;99.90;;;;;;4979456;28;20084;-84
2021/01/22 03:29:32;;;;;;;;;;;0.30;99.90;;;;;;5001872;28;20021;-86
2021/01/22 03:31:59;;;;;;;36.85;12.13;;;0.30;99.90;;;;;;5001910;28;19959;-84
2021/01/22 03:34:26;;;;;;;34.83;13.20;;;0.30;99.90;;;;;;4985715;28;20014;-84
2021/01/22 03:37:02;;;;;;;34.58;12.30;;;0.30;99.90;;;;;;4993595;28;20030;-85
2021/01/22 03:39:29;;;;;;;42.42;14.90;;;0.30;99.90;;;;;;4978508;28;20487;-83
2021/01/22 03:41:55;;;;;;;32.60;13.55;;;0.30;99.90;;;;;;4997180;28;20042;-85
2021/01/22 03:44:21;;;;;;;34.67;14.40;;;0.30;99.90;;;;;;5011062;28;20026;-85
2021/01/22 03:46:48;;;;;;;52.20;15.95;;;0.30;99.90;;;;;;5002175;28;20037;-85
2021/01/22 03:49:14;;;;;;;52.58;16.73;;;0.30;99.90;;;;;;4998833;28;20033;-86
2021/01/22 03:51:39;;;;;;;43.15;14.57;;;0.30;99.90;;;;;;5015147;28;20041;-82
2021/01/22 03:54:05;;;;;;;49.75;16.40;;;0.30;99.90;;;;;;4997051;28;20027;-86
2021/01/22 03:56:34;;;;;;;37.42;15.02;;;0.40;99.90;;;;;;5008940;28;20475;-85
2021/01/22 03:59:00;;;;;;;37.05;13.73;;;0.30;99.90;;;;;;5010183;28;20054;-85
2021/01/22 04:01:28;;;;;;;46.95;14.82;;;0.30;99.90;;;;;;5001577;28;20026;-85
2021/01/22 04:03:54;;;;;;;59.42;16.65;;;0.30;99.90;;;;;;5012891;28;20040;-85
2021/01/22 04:06:20;;;;;;;55.65;16.85;;;0.20;99.90;;;;;;4990101;28;20058;-83
2021/01/22 04:08:46;;;;;;;46.15;15.98;;;0.20;99.90;;;;;;5012242;28;20044;-84
2021/01/22 04:11:12;;;;;;;37.00;13.48;;;0.20;99.90;;;;;;4986781;28;20096;-84
2021/01/22 04:13:37;;;;;;;40.80;14.55;;;0.20;99.90;;;;;;5003326;28;20574;-85
2021/01/22 04:16:03;;;;;;;;;;;0.20;99.90;;;;;;5030916;28;20006;-86
2021/01/22 04:18:29;;;;;;;60.58;14.95;;;0.20;99.90;;;;;;5015100;28;20373;-85
2021/01/22 04:20:55;;;;;;;;;;;0.10;99.90;;;;;;5016616;28;20077;-84
2021/01/22 04:23:21;;;;;;;48.75;14.88;;;0.10;99.90;;;;;;5067378;22;19944;-80
2021/01/22 04:25:47;;;;;;;48.67;16.85;;;0.20;99.90;;;;;;5023538;28;20113;-79
2021/01/22 04:28:13;;;;;;;46.45;15.80;;;0.10;99.90;;;;;;5027911;28;20030;-79
2021/01/22 04:30:39;;;;;;;45.33;15.98;;;-1.00;99.90;;;;;;5042001;28;20032;-79
2021/01/22 04:33:05;;;;;;;49.45;15.75;;;0.10;99.90;;;;;;5024033;28;20099;-80
2021/01/22 04:35:31;;;;;;;49.33;15.98;;;0.00;99.90;;;;;;5010537;28;20106;-79
2021/01/22 04:37:57;;;;;;;53.50;15.50;;;0.10;99.90;;;;;;5023376;28;20552;-80
2021/01/22 04:40:26;;;;;;;45.20;15.85;;;0.00;99.90;;;;;;5013466;28;20022;-81
2021/01/22 04:42:52;;;;;;;38.67;15.55;;;0.00;99.90;;;;;;5026198;28;20021;-81
2021/01/22 04:45:18;;;;;;;48.65;17.17;;;-0.10;99.90;;;;;;5036787;28;20096;-81
2021/01/22 04:47:44;;;;;;;58.45;16.98;;;0.00;99.90;;;;;;5019567;28;20700;-81
2021/01/22 04:50:11;;;;;;;52.20;16.05;;;0.00;99.90;;;;;;5039677;28;20080;-81
2021/01/22 04:52:38;;;;;;;53.17;16.80;;;-0.10;99.90;;;;;;5025257;28;20048;-81
2021/01/22 04:55:10;;;;;;;53.97;15.40;;;-0.20;99.90;;;;;;5024785;28;20112;-81
2021/01/22 04:57:41;;;;;;;56.70;15.88;;;-0.10;99.90;;;;;;5026211;28;20017;-81
2021/01/22 05:00:07;;;;;;;38.40;14.50;;;-0.20;99.90;;;;;;5027129;28;20492;-82
2021/01/22 05:02:33;;;;;;;35.08;13.52;;;-0.20;99.90;;;;;;5026109;28;20018;-81
2021/01/22 05:04:59;;;;;;;44.80;14.95;;;-1.30;99.90;;;;;;5018328;28;20442;-81
2021/01/22 05:07:25;;;;;;;39.63;15.50;;;-1.40;99.90;;;;;;5019280;28;20061;-81
2021/01/22 05:09:53;;;;;;;52.58;15.43;;;-0.20;99.90;;;;;;5023982;28;20033;-81
2021/01/22 05:12:20;;;;;;;49.67;16.65;;;-0.10;99.90;;;;;;5035776;28;20553;-81
2021/01/22 05:14:46;;;;;;;47.03;16.60;;;-0.20;99.90;;;;;;5040168;28;20072;-79
2021/01/22 05:17:13;;;;;;;44.17;15.60;;;-0.10;99.90;;;;;;5040078;28;20021;-79
2021/01/22 05:19:40;;;;;;;46.05;16.27;;;-0.10;99.90;;;;;;5022703;28;20087;-81
2021/01/22 05:22:11;;;;;;;64.47;17.35;;;-0.10;99.90;;;;;;5019836;28;20085;-81
2021/01/22 05:24:37;;;;;;;55.47;18.08;;;-0.20;99.90;;;;;;5027152;28;20093;-81
2021/01/22 05:27:12;;;;;;;75.60;21.42;;;-0.20;99.90;;;;;;5010328;28;20025;-79
2021/01/22 05:29:39;;;;;;;72.97;21.05;;;-0.20;99.90;;;;;;5010955;28;20394;-80
2021/01/22 05:32:28;;;;;;;57.08;18.77;;;-0.10;99.90;;;;;;5042453;28;20025;-81
2021/01/22 05:34:55;;;;;;;49.63;16.63;;;-0.20;99.90;;;;;;5026305;28;20025;-81
2021/01/22 05:37:23;;;;;;;54.30;18.00;;;-0.20;99.90;;;;;;5028547;28;20031;-81
2021/01/22 05:40:13;;;;;;;46.40;16.52;;;-0.20;99.90;;;;;;5026000;28;20014;-81
2021/01/22 05:42:53;;;;;;;56.08;18.30;;;-0.30;99.90;;;;;;5028400;28;20033;-80
2021/01/22 05:45:36;;;;;;;52.67;16.77;;;-0.30;99.90;;;;;;5055917;28;20037;-80
2021/01/22 05:48:03;;;;;;;44.13;16.02;;;-0.30;99.90;;;;;;5055201;28;20021;-79
2021/01/22 05:50:51;;;;;;;49.50;18.63;;;-0.30;99.90;;;;;;5024698;28;20032;-78
2021/01/22 05:53:18;;;;;;;68.70;19.35;;;-0.30;99.90;;;;;;5052634;28;20036;-80
2021/01/22 05:55:44;;;;;;;52.60;18.20;;;-0.30;99.90;;;;;;5035509;28;20026;-79
2021/01/22 05:58:10;;;;;;;63.70;21.05;;;-0.30;99.90;;;;;;5041101;28;20086;-80
2021/01/22 06:00:36;;;;;;;67.85;22.35;;;-0.20;99.90;;;;;;5057343;28;20064;-80
2021/01/22 06:03:21;;;;;;;68.22;19.67;;;-0.10;99.90;;;;;;5058236;28;20018;-79
2021/01/22 06:05:54;;;;;;;72.53;20.60;;;-0.20;99.90;;;;;;5055681;28;20008;-81
2021/01/22 06:08:20;;;;;;;73.13;21.38;;;-0.20;99.90;;;;;;5047319;28;20010;-79
2021/01/22 06:10:47;;;;;;;79.00;20.90;;;-0.20;99.90;;;;;;5012058;28;20121;-80
2021/01/22 06:13:14;;;;;;;77.78;22.73;;;-0.30;99.90;;;;;;5033319;28;20030;-79
2021/01/22 06:15:41;;;;;;;69.70;21.92;;;-0.30;99.90;;;;;;5024104;28;20032;-80
2021/01/22 06:18:12;;;;;;;72.50;20.95;;;-0.20;99.90;;;;;;5025538;28;20025;-80
2021/01/22 06:20:41;;;;;;;69.20;20.90;;;-0.20;99.90;;;;;;5017024;28;20041;-80
2021/01/22 06:23:14;;;;;;;61.63;20.15;;;-0.20;99.90;;;;;;5021965;28;20034;-80
2021/01/22 06:25:42;;;;;;;67.18;19.90;;;-0.30;99.90;;;;;;5027100;28;20033;-80
2021/01/22 06:28:12;;;;;;;63.75;19.40;;;-0.30;99.90;;;;;;5019163;28;20085;-80
2021/01/22 06:30:40;;;;;;;48.67;16.50;;;-0.30;99.90;;;;;;5026958;28;20031;-80
2021/01/22 06:33:07;;;;;;;66.47;18.17;;;-0.30;99.90;;;;;;5035308;28;20069;-77
2021/01/22 06:35:37;;;;;;;50.28;17.80;;;-0.40;99.90;;;;;;5040225;28;20028;-79
2021/01/22 06:38:04;;;;;;;55.05;18.27;;;-0.40;99.90;;;;;;5038582;28;20029;-80
2021/01/22 06:40:30;;;;;;;60.67;18.58;;;-0.90;99.90;;;;;;5033949;28;20101;-80
2021/01/22 06:42:56;;;;;;;49.47;17.20;;;-0.30;99.90;;;;;;5027261;28;20029;-79
2021/01/22 06:45:23;;;;;;;56.05;18.38;;;-0.30;99.90;;;;;;5016710;28;20033;-80
2021/01/22 06:48:06;;;;;;;66.10;20.25;;;-0.30;99.90;;;;;;5040879;28;20116;-79
2021/01/22 06:50:33;;;;;;;57.72;19.40;;;-0.30;99.90;;;;;;5032926;28;20030;-79
2021/01/22 06:53:15;;;;;;;71.32;22.02;;;-0.30;99.90;;;;;;5048664;28;20029;-79
2021/01/22 06:55:52;;;;;;;75.50;21.13;;;-0.30;99.90;;;;;;5045595;28;20026;-81
2021/01/22 06:58:25;;;;;;;75.88;23.15;;;-0.30;99.90;;;;;;5047138;28;20045;-79
2021/01/22 07:00:56;;;;;;;61.42;18.52;;;-0.30;99.90;;;;;;5031336;28;20025;-82
2021/01/22 07:03:38;;;;;;;78.68;21.80;;;-0.30;99.90;;;;;;5031150;28;20025;-79
2021/01/22 07:06:27;;;;;;;72.07;21.15;;;-0.30;99.90;;;;;;5025170;28;20018;-79
2021/01/22 07:08:54;;;;;;;76.80;21.98;;;-0.30;99.90;;;;;;5023901;28;20025;-79
2021/01/22 07:11:20;;;;;;;65.95;22.08;;;-0.30;99.90;;;;;;5047257;28;20021;-79
2021/01/22 07:13:46;;;;;;;80.57;23.02;;;-0.30;99.90;;;;;;5027937;28;20136;-80
2021/01/22 07:16:18;;;;;;;67.95;23.65;;;-0.30;99.90;;;;;;5045293;28;20029;-81
2021/01/22 07:19:01;;;;;;;52.60;20.75;;;-0.20;99.90;;;;;;5029056;28;20037;-82
2021/01/22 07:21:28;;;;;;;61.22;19.83;;;-0.20;99.90;;;;;;5036715;28;20017;-80
2021/01/22 07:23:56;;;;;;;56.80;19.05;;;-0.30;99.90;;;;;;5042833;28;20022;-80
2021/01/22 07:26:44;;;;;;;71.68;22.30;;;-0.20;99.90;;;;;;5033527;28;20152;-82
2021/01/22 07:29:15;;;;;;;94.43;24.27;;;-0.20;99.90;;;;;;5036785;28;20025;-81
2021/01/22 07:31:48;;;;;;;90.03;26.15;;;-0.30;99.90;;;;;;5032901;28;20021;-78
2021/01/22 07:34:45;;;;;;;78.53;23.52;;;-0.20;99.90;;;;;;5040130;28;20037;-80
2021/01/22 07:37:23;;;;;;;65.03;19.95;;;-0.20;99.90;;;;;;5022356;28;20032;-80
2021/01/22 07:39:50;;;;;;;64.20;22.23;;;-0.20;99.90;;;;;;5018120;28;20026;-79
2021/01/22 07:42:24;;;;;;;58.53;18.77;;;-0.20;99.90;;;;;;5028342;28;20029;-80
2021/01/22 07:44:52;;;;;;;73.43;20.52;;;-0.20;99.90;;;;;;5048637;28;20083;-80
2021/01/22 07:47:32;;;;;;;67.97;21.00;;;-0.20;99.90;;;;;;5038340;28;20180;-80
2021/01/22 07:50:06;;;;;;;71.28;21.05;;;-0.20;99.90;;;;;;5038446;28;20031;-78
2021/01/22 07:52:36;;;;;;;67.20;21.38;;;-0.20;99.90;;;;;;5025471;28;20107;-78
2021/01/22 07:55:03;;;;;;;55.83;18.90;;;-0.20;99.90;;;;;;5021322;28;20029;-78
2021/01/22 07:57:29;;;;;;;62.13;19.77;;;-0.20;99.90;;;;;;5021545;28;20029;-78
2021/01/22 07:59:57;;;;;;;;;;;-0.20;99.90;;;;;;5024211;28;20045;-78
2021/01/22 08:02:24;;;;;;;50.35;17.95;;;-0.10;99.90;;;;;;5023253;28;19909;-79
2021/01/22 08:05:01;;;;;;;60.55;20.23;;;-0.10;99.90;;;;;;5022028;28;20032;-79
2021/01/22 08:07:34;;;;;;;51.78;19.35;;;-0.20;99.90;;;;;;5016344;28;20601;-78
2021/01/22 08:10:00;;;;;;;54.88;18.30;;;-0.20;99.90;;;;;;5035010;28;20034;-78
2021/01/22 08:12:26;;;;;;;;;;;-0.20;99.90;;;;;;5023454;28;20052;-78
2021/01/22 08:14:51;;;;;;;46.00;18.23;;;-0.20;99.90;;;;;;5025947;28;19928;-79
2021/01/22 08:17:18;;;;;;;;;;;-0.20;99.90;;;;;;5022788;28;20021;-78
2021/01/22 08:19:44;;;;;;;50.45;16.30;;;-0.20;99.90;;;;;;5039058;28;19920;-78
2021/01/22 08:22:17;;;;;;;57.53;19.77;;;-0.20;99.90;;;;;;5023261;28;20025;-78
2021/01/22 08:24:50;;;;;;;57.03;18.45;;;-0.20;99.90;;;;;;5022881;28;20101;-78
2021/01/22 08:27:20;;;;;;;60.35;19.80;;;-0.10;99.90;;;;;;5022461;28;20017;-78
2021/01/22 08:29:46;;;;;;;54.00;18.40;;;-0.10;99.90;;;;;;5055839;28;20024;-78
2021/01/22 08:32:15;;;;;;;57.42;20.50;;;-0.10;99.90;;;;;;5039412;28;20038;-78
2021/01/22 08:34:42;;;;;;;64.80;20.75;;;-0.10;99.90;;;;;;5039254;28;20022;-78
2021/01/22 08:37:08;;;;;;;64.22;20.50;;;0.00;99.90;;;;;;5020350;28;20029;-78
2021/01/22 08:39:55;;;;;;;;;;;0.00;99.90;;;;;;5022471;28;20052;-78
2021/01/22 08:42:22;;;;;;;64.15;21.23;;;0.00;99.90;;;;;;5021406;28;19908;-78
2021/01/22 08:45:00;;;;;;;80.90;25.90;;;0.10;99.90;;;;;;5009553;28;20026;-78
2021/01/22 08:47:27;;;;;;;62.38;22.33;;;0.10;99.90;;;;;;5009004;28;20026;-79
2021/01/22 08:50:02;;;;;;;68.13;22.63;;;0.10;99.90;;;;;;5021174;28;20363;-78
2021/01/22 08:52:28;;;;;;;47.88;20.55;;;0.10;99.90;;;;;;5021578;28;20025;-78
2021/01/22 08:54:57;;;;;;;;;;;0.20;99.90;;;;;;5038799;28;20033;-80
2021/01/22 08:57:24;;;;;;;65.88;20.52;;;0.10;99.90;;;;;;5019930;28;19960;-78
2021/01/22 08:59:57;;;;;;;64.25;22.65;;;0.20;99.90;;;;;;5037236;28;20065;-79
2021/01/22 09:02:41;;;;;;;73.63;24.25;;;0.20;99.90;;;;;;5018533;28;20025;-80
2021/01/22 09:05:12;;;;;;;97.60;28.50;;;0.30;99.90;;;;;;5028663;28;20044;-77
2021/01/22 09:07:39;;;;;;;103.07;31.52;;;0.30;99.90;;;;;;5033033;28;20017;-79
2021/01/22 09:10:24;;;;;;;124.25;36.05;;;0.40;99.90;;;;;;5025639;28;20026;-79
2021/01/22 09:12:50;;;;;;;96.47;27.60;;;0.50;99.90;;;;;;5030028;28;20030;-79
2021/01/22 09:15:17;;;;;;;86.93;28.50;;;0.50;99.90;;;;;;5014233;28;20398;-78
2021/01/22 09:17:49;;;;;;;83.28;28.02;;;0.50;99.90;;;;;;5037684;28;20033;-80
2021/01/22 09:20:19;;;;;;;87.68;27.90;;;0.60;99.90;;;;;;5023907;28;20018;-80
2021/01/22 09:22:47;;;;;;;93.35;29.38;;;0.60;99.90;;;;;;5028847;22;20050;-82
2021/01/22 09:25:23;;;;;;;84.10;29.95;;;0.70;99.90;;;;;;4999181;28;20372;-85
2021/01/22 09:27:50;;;;;;;91.65;29.50;;;0.70;99.90;;;;;;5002138;28;20040;-85
2021/01/22 09:30:21;;;;;;;88.85;25.45;;;0.70;99.90;;;;;;5004282;28;20085;-87
2021/01/22 09:32:53;;;;;;;71.20;23.08;;;0.80;99.90;;;;;;4988785;28;20104;-86
2021/01/22 09:35:21;;;;;;;68.20;23.20;;;0.90;99.90;;;;;;4993451;28;20038;-85
2021/01/22 09:37:48;;;;;;;57.75;22.13;;;0.90;99.90;;;;;;4985511;28;20439;-85
2021/01/22 09:40:14;;;;;;;73.97;22.63;;;1.10;99.90;;;;;;5001783;28;20029;-86
2021/01/22 09:42:40;;;;;;;74.38;23.58;;;1.10;99.90;;;;;;4992742;28;20033;-86
2021/01/22 09:45:08;;;;;;;65.20;25.17;;;1.20;99.90;;;;;;4994131;28;20533;-87
2021/01/22 09:47:34;;;;;;;64.00;23.40;;;1.20;99.90;;;;;;4989092;28;20027;-87
2021/01/22 09:50:00;;;;;;;;;;;1.20;99.90;;;;;;5004979;28;20021;-89
2021/01/22 09:52:26;;;;;;;58.85;22.55;;;1.30;99.90;;;;;;5032786;28;20029;-88
2021/01/22 09:54:52;;;;;;;59.35;22.52;;;1.40;99.90;;;;;;4993740;28;20025;-88
2021/01/22 09:57:18;;;;;;;68.40;23.35;;;1.40;99.90;;;;;;5003343;28;20018;-87
2021/01/22 09:59:44;;;;;;;70.43;22.27;;;1.50;99.90;;;;;;5005605;28;20036;-87
2021/01/22 10:02:09;;;;;;;57.58;19.90;;;1.60;99.90;;;;;;5006399;28;20385;-87
2021/01/22 10:04:36;;;;;;;58.85;20.27;;;1.60;99.90;;;;;;4996310;28;20053;-87
2021/01/22 10:07:02;;;;;;;;;;;1.70;99.90;;;;;;4993282;28;20026;-87
2021/01/22 10:09:28;;;;;;;50.90;19.08;;;1.80;99.90;;;;;;5012397;28;19910;-88
2021/01/22 10:11:54;;;;;;;50.15;18.80;;;2.00;99.90;;;;;;5022272;28;20573;-91
2021/01/22 10:14:20;;;;;;;48.80;18.42;;;2.10;99.90;;;;;;5027150;28;20441;-85
2021/01/22 10:16:46;;;;;;;47.90;18.27;;;2.20;99.90;;;;;;5010140;28;20029;-85
2021/01/22 10:19:11;;;;;;;49.83;18.02;;;2.40;99.90;;;;;;5009592;28;20034;-87
2021/01/22 10:21:37;;;;;;;41.83;16.77;;;2.50;99.90;;;;;;5019222;28;20022;-87
2021/01/22 10:24:03;;;;;;;36.42;15.35;;;2.60;99.90;;;;;;5004121;28;20092;-87
2021/01/22 10:26:29;;;;;;;39.58;14.15;;;2.70;99.90;;;;;;4993348;28;20022;-88
2021/01/22 10:28:55;;;;;;;36.22;16.00;;;2.70;99.90;;;;;;5018410;28;20411;-87
2021/01/22 10:31:21;;;;;;;39.75;16.55;;;2.80;99.90;;;;;;5012606;28;20403;-86
2021/01/22 10:33:47;;;;;;;29.55;14.10;;;2.90;99.90;;;;;;5018180;28;20078;-86
2021/01/22 10:36:13;;;;;;;;;;;3.00;99.90;;;;;;5016476;28;20577;-87
2021/01/22 10:38:40;;;;;;;41.60;14.40;;;3.20;99.90;;;;;;5013595;28;19906;-86
2021/01/22 10:41:06;;;;;;;37.17;13.57;;;3.30;99.90;;;;;;5008396;28;20022;-87
2021/01/22 10:43:32;;;;;;;36.45;14.05;;;3.40;99.90;;;;;;5000955;28;20029;-86
2021/01/22 10:45:59;;;;;;;38.67;13.63;;;3.50;99.90;;;;;;5022719;28;20056;-86
2021/01/22 10:48:25;;;;;;;31.40;14.38;;;3.70;99.90;;;;;;5000361;28;20081;-87
2021/01/22 10:50:51;;;;;;;33.28;13.07;;;3.90;99.90;;;;;;5027561;28;20033;-87
2021/01/22 10:53:23;;;;;;;26.30;12.65;;;4.10;99.90;;;;;;5022836;28;20059;-85
2021/01/22 10:55:49;;;;;;;31.17;13.75;;;4.20;99.90;;;;;;5022499;28;20109;-86
2021/01/22 10:58:15;;;;;;;30.95;12.90;;;4.20;99.90;;;;;;5015878;28;20513;-86
2021/01/22 11:00:41;;;;;;;34.53;11.85;;;4.10;99.90;;;;;;5009784;28;20018;-86
2021/01/22 11:03:06;;;;;;;29.48;11.65;;;4.00;99.90;;;;;;5011839;28;20097;-87
2021/01/22 11:05:33;;;;;;;25.73;11.60;;;4.00;99.90;;;;;;4995841;28;20368;-86
2021/01/22 11:07:59;;;;;;;24.90;12.43;;;4.00;99.90;;;;;;5012829;28;20052;-86
2021/01/22 11:10:25;;;;;;;24.92;10.07;;;4.00;99.90;;;;;;5005025;28;20033;-86
2021/01/22 11:12:51;;;;;;;;;;;4.10;99.90;;;;;;5015517;28;20021;-86
2021/01/22 11:15:17;;;;;;;19.88;9.05;;;4.20;99.90;;;;;;5016200;28;19905;-86
2021/01/22 11:17:42;;;;;;;28.63;10.05;;;4.30;99.90;;;;;;4997390;28;20521;-86
2021/01/22 11:20:09;;;;;;;24.38;11.48;;;4.40;99.80;;;;;;5025124;28;20033;-85
2021/01/22 11:22:35;;;;;;;23.98;10.25;;;4.30;99.30;;;;;;4994342;28;20030;-85
2021/01/22 11:25:01;;;;;;;21.38;10.18;;;4.30;99.60;;;;;;5000356;28;20053;-86
2021/01/22 11:27:27;;;;;;;;;;;4.50;99.90;;;;;;5016012;28;20025;-85
2021/01/22 11:29:53;;;;;;;31.63;10.60;;;4.60;99.50;;;;;;5016002;28;20381;-85
2021/01/22 11:32:19;;;;;;;;;;;4.70;99.70;;;;;;4999250;28;20034;-85
2021/01/22 11:34:45;;;;;;;24.85;10.50;;;4.80;99.90;;;;;;5002584;28;19912;-85
2021/01/22 11:37:11;;;;;;;21.02;9.75;;;4.80;99.90;;;;;;5007684;28;20007;-84
2021/01/22 11:39:37;;;;;;;23.45;9.75;;;4.80;99.90;;;;;;4996026;28;20390;-85
2021/01/22 11:42:08;;;;;;;20.20;9.45;;;4.80;99.50;;;;;;5030137;28;20117;-85
2021/01/22 11:44:35;;;;;;;19.67;9.02;;;4.80;99.00;;;;;;5024078;28;20116;-85
2021/01/22 11:47:01;;;;;;;27.35;13.05;;;4.70;99.10;;;;;;5009935;28;20026;-85
2021/01/22 11:49:27;;;;;;;24.17;11.82;;;4.70;99.30;;;;;;4985538;28;20030;-85
2021/01/22 11:51:53;;;;;;;31.27;9.85;;;4.80;99.70;;;;;;5014369;28;20033;-85
2021/01/22 11:54:19;;;;;;;24.10;10.48;;;4.80;99.60;;;;;;5025249;28;20467;-86
2021/01/22 11:56:50;;;;;;;;;;;5.00;99.60;;;;;;5013416;28;20041;-86
2021/01/22 11:59:16;;;;;;;20.10;8.63;;;5.20;99.50;;;;;;5012746;28;19906;-86
2021/01/22 12:01:42;;;;;;;19.60;8.43;;;5.30;99.40;;;;;;5016196;28;20060;-86
2021/01/22 12:04:08;;;;;;;19.20;9.25;;;5.50;99.20;;;;;;5003364;28;20455;-86
2021/01/22 12:06:34;;;;;;;21.58;8.63;;;5.60;98.80;;;;;;5007495;28;20029;-84
2021/01/22 12:08:59;;;;;;;22.48;8.75;;;5.70;98.70;;;;;;5015977;28;20037;-86
2021/01/22 12:11:26;;;;;;;15.80;7.22;;;6.00;98.80;;;;;;5010294;28;20426;-85
2021/01/22 12:13:52;;;;;;;24.85;7.22;;;6.20;97.80;;;;;;4996770;28;20023;-85
2021/01/22 12:16:18;;;;;;;16.20;6.30;;;6.30;97.70;;;;;;5011862;28;20120;-84
2021/01/22 12:18:44;;;;;;;17.10;6.88;;;6.60;97.20;;;;;;5001582;28;20427;-83
2021/01/22 12:21:10;;;;;;;17.30;5.50;;;6.70;96.30;;;;;;5020079;28;20029;-84
2021/01/22 12:23:35;;;;;;;;;;;7.00;95.40;;;;;;5004543;28;20042;-84
2021/01/22 12:26:02;;;;;;;10.57;4.68;;;7.50;94.30;;;;;;5002923;28;20330;-84
2021/01/22 12:28:27;;;;;;;10.57;4.40;;;8.20;93.00;;;;;;5010667;28;20030;-83
2021/01/22 12:30:53;;;;;;;13.05;5.13;;;8.90;90.80;;;;;;4996812;28;20055;-82
2021/01/22 12:33:19;;;;;;;;;;;9.50;88.90;;;;;;5001826;28;20027;-82
2021/01/22 12:35:49;;;;;;;16.52;4.28;;;10.20;83.90;;;;;;5019014;28;20297;-82
2021/01/22 12:38:16;;;;;;;8.65;3.08;;;10.40;80.30;;;;;;4996041;28;20076;-81
2021/01/22 12:40:42;;;;;;;11.75;3.40;;;10.90;85.30;;;;;;5001940;28;20079;-82
2021/01/22 12:43:07;;;;;;;;;;;11.00;84.80;;;;;;5020812;28;20026;-81
2021/01/22 12:45:33;;;;;;;10.23;3.97;;;11.20;76.60;;;;;;5016082;28;20071;-81
2021/01/22 12:47:59;;;;;;;;;;;11.80;81.80;;;;;;5014143;28;20018;-82
2021/01/22 12:50:25;;;;;;;8.85;2.17;;;11.80;77.90;;;;;;5017420;28;20011;-82